Time;durP1;ratioP1;P1;durP2;ratioP2;P2;SDS_P1;SDS_P2;PMS_P1;PMS_P2;Temp;Humidity;BMP_temperature;BMP_pressure;BME280_temperature;BME280_humidity;BME280_pressure;Samples;Min_cycle;Max_cycle;Signal;HPM_P1;HPM_P2
2024/02/18 00:01:55;;;;;;;64.93;57.80;;;;;;;;;;4164010;28;20687;-67
2024/02/18 00:03:57;;;;;;;78.50;58.50;;;;;;;;;;4163753;28;20095;-67
2024/02/18 00:05:59;;;;;;;53.78;48.42;;;;;;;;;;4164066;28;20046;-68
2024/02/18 00:08:01;;;;;;;42.85;39.83;;;;;;;;;;4163107;28;20072;-68
2024/02/18 00:10:04;;;;;;;40.50;37.83;;;;;;;;;;4164078;28;20042;-68
2024/02/18 00:12:05;;;;;;;41.08;38.28;;;;;;;;;;4178501;28;20037;-68
2024/02/18 00:14:07;;;;;;;42.83;40.03;;;;;;;;;;4180676;28;20041;-68
2024/02/18 00:16:09;;;;;;;43.15;40.20;;;;;;;;;;4180568;28;20065;-68
2024/02/18 00:18:11;;;;;;;44.72;41.50;;;;;;;;;;4180343;28;20056;-68
2024/02/18 00:20:15;;;;;;;48.75;44.95;;;;;;;;;;4180470;28;20071;-68
2024/02/18 00:22:17;;;;;;;50.85;47.15;;;;;;;;;;4180456;28;20124;-68
2024/02/18 00:24:18;;;;;;;56.75;52.20;;;;;;;;;;4180463;28;20094;-68
2024/02/18 00:26:20;;;;;;;53.07;49.10;;;;;;;;;;4180124;28;20071;-68
2024/02/18 00:28:42;;;;;;;50.50;46.72;;;;;;;;;;4179368;28;20128;-68
2024/02/18 00:30:49;;;;;;;46.75;42.92;;;;;;;;;;4178861;28;20060;-68
2024/02/18 00:32:50;;;;;;;46.33;43.25;;;;;;;;;;4178974;28;20052;-69
2024/02/18 00:34:52;;;;;;;46.20;42.97;;;;;;;;;;4179619;28;20075;-68
2024/02/18 00:36:54;;;;;;;46.65;43.10;;;;;;;;;;4180151;28;20041;-68
2024/02/18 00:38:56;;;;;;;42.47;39.45;;;;;;;;;;4177427;28;20132;-68
2024/02/18 00:40:58;;;;;;;44.67;41.30;;;;;;;;;;4163938;28;20455;-63
2024/02/18 00:42:59;;;;;;;44.40;40.88;;;;;;;;;;4163527;28;20037;-62
2024/02/18 00:45:01;;;;;;;43.63;40.30;;;;;;;;;;4163458;28;20076;-63
2024/02/18 00:47:03;;;;;;;35.28;33.53;;;;;;;;;;4163973;28;20288;-62
2024/02/18 00:49:06;;;;;;;35.03;33.13;;;;;;;;;;4163942;28;20131;-63
2024/02/18 00:51:08;;;;;;;39.08;36.40;;;;;;;;;;4163950;28;20045;-62
2024/02/18 00:53:10;;;;;;;42.05;39.22;;;;;;;;;;4163766;28;20115;-62
2024/02/18 00:55:12;;;;;;;44.92;41.72;;;;;;;;;;4163959;28;20051;-62
2024/02/18 00:57:14;;;;;;;48.87;44.97;;;;;;;;;;4163781;28;20041;-62
2024/02/18 00:59:16;;;;;;;46.63;42.95;;;;;;;;;;4163652;28;20448;-62
2024/02/18 01:01:18;;;;;;;46.28;42.60;;;;;;;;;;4163542;28;20049;-62
2024/02/18 01:03:20;;;;;;;47.28;43.75;;;;;;;;;;4162658;28;20096;-62
2024/02/18 01:05:21;;;;;;;48.37;44.57;;;;;;;;;;4163574;28;20099;-62
2024/02/18 01:07:23;;;;;;;43.95;41.05;;;;;;;;;;4170291;28;20048;-62
2024/02/18 01:09:24;;;;;;;44.55;41.72;;;;;;;;;;4180343;28;20041;-62
2024/02/18 01:11:26;;;;;;;46.95;43.50;;;;;;;;;;4180334;28;20427;-62
2024/02/18 01:13:28;;;;;;;45.57;42.67;;;;;;;;;;4180284;28;20045;-63
2024/02/18 01:15:30;;;;;;;42.97;40.55;;;;;;;;;;4180058;28;20492;-63
2024/02/18 01:17:32;;;;;;;38.83;36.60;;;;;;;;;;4182594;28;20037;-63
2024/02/18 01:19:33;;;;;;;42.88;40.38;;;;;;;;;;4182961;28;20086;-63
2024/02/18 01:21:35;;;;;;;42.37;40.07;;;;;;;;;;4182691;28;20045;-63
2024/02/18 01:23:37;;;;;;;42.43;39.80;;;;;;;;;;4182921;28;20069;-63
2024/02/18 01:25:39;;;;;;;42.50;39.72;;;;;;;;;;4182837;28;20067;-63
2024/02/18 01:27:40;;;;;;;38.85;36.63;;;;;;;;;;4182871;28;20037;-62
2024/02/18 01:29:42;;;;;;;41.83;39.38;;;;;;;;;;4182852;28;20053;-63
2024/02/18 01:31:44;;;;;;;39.95;37.72;;;;;;;;;;4182763;28;20127;-62
2024/02/18 01:33:45;;;;;;;42.35;39.47;;;;;;;;;;4182946;28;20052;-63
2024/02/18 01:35:47;;;;;;;42.22;39.20;;;;;;;;;;4175226;28;20049;-63
2024/02/18 01:37:50;;;;;;;41.78;38.78;;;;;;;;;;4166019;28;20669;-62
2024/02/18 01:39:51;;;;;;;42.85;40.15;;;;;;;;;;4165983;28;20081;-69
2024/02/18 01:41:53;;;;;;;41.55;38.70;;;;;;;;;;4166155;28;20041;-69
2024/02/18 01:43:54;;;;;;;42.00;39.30;;;;;;;;;;4165970;28;20075;-69
2024/02/18 01:45:56;;;;;;;43.88;40.25;;;;;;;;;;4166021;28;20048;-69
2024/02/18 01:47:58;;;;;;;45.07;41.97;;;;;;;;;;4165975;28;20048;-69
2024/02/18 01:50:00;;;;;;;46.72;43.30;;;;;;;;;;4166102;28;20057;-64
2024/02/18 01:52:02;;;;;;;44.95;41.88;;;;;;;;;;4165955;28;20041;-62
2024/02/18 01:54:05;;;;;;;44.83;41.72;;;;;;;;;;4167983;28;20045;-63
2024/02/18 01:56:07;;;;;;;44.10;41.30;;;;;;;;;;4171560;28;20045;-62
2024/02/18 01:58:09;;;;;;;41.45;38.47;;;;;;;;;;4164754;28;20073;-62
2024/02/18 02:00:14;;;;;;;43.83;40.80;;;;;;;;;;4164430;28;20115;-62
2024/02/18 02:02:16;;;;;;;45.40;42.53;;;;;;;;;;4174422;28;20069;-62
2024/02/18 02:04:17;;;;;;;42.97;40.30;;;;;;;;;;4182400;28;20071;-62
2024/02/18 02:06:19;;;;;;;42.20;39.70;;;;;;;;;;4182029;28;20294;-62
2024/02/18 02:08:22;;;;;;;43.72;40.63;;;;;;;;;;4182252;28;20037;-63
2024/02/18 02:10:24;;;;;;;38.25;36.05;;;;;;;;;;4181977;28;20135;-62
2024/02/18 02:12:26;;;;;;;38.70;36.65;;;;;;;;;;4182112;28;20512;-62
2024/02/18 02:14:27;;;;;;;42.27;39.33;;;;;;;;;;4182112;28;20069;-62
2024/02/18 02:16:29;;;;;;;43.95;40.67;;;;;;;;;;4182089;28;20041;-63
2024/02/18 02:18:31;;;;;;;44.67;41.40;;;;;;;;;;4182191;28;20076;-62
2024/02/18 02:20:32;;;;;;;43.25;40.72;;;;;;;;;;4181817;28;20445;-62
2024/02/18 02:22:34;;;;;;;41.72;39.35;;;;;;;;;;4182013;28;20041;-62
2024/02/18 02:24:36;;;;;;;41.78;38.83;;;;;;;;;;4182196;28;20063;-62
2024/02/18 02:26:40;;;;;;;38.70;36.28;;;;;;;;;;4181659;28;20110;-62
2024/02/18 02:28:46;;;;;;;41.88;39.42;;;;;;;;;;4181770;28;20043;-63
2024/02/18 02:30:48;;;;;;;41.80;39.15;;;;;;;;;;4181767;28;20140;-63
2024/02/18 02:32:50;;;;;;;43.70;41.22;;;;;;;;;;4168139;28;20068;-62
2024/02/18 02:34:52;;;;;;;40.42;38.30;;;;;;;;;;4165352;28;20048;-62
2024/02/18 02:36:54;;;;;;;40.83;38.53;;;;;;;;;;4165179;28;20145;-62
2024/02/18 02:38:56;;;;;;;44.78;41.92;;;;;;;;;;4165161;28;20145;-62
2024/02/18 02:41:00;;;;;;;40.15;37.72;;;;;;;;;;4165229;28;20069;-63
2024/02/18 02:43:02;;;;;;;38.65;36.25;;;;;;;;;;4165130;28;20045;-63
2024/02/18 02:45:04;;;;;;;38.65;36.50;;;;;;;;;;4164969;28;20045;-63
2024/02/18 02:47:06;;;;;;;40.10;37.78;;;;;;;;;;4173960;28;20083;-62
2024/02/18 02:49:07;;;;;;;38.90;36.80;;;;;;;;;;4181631;28;20040;-62
2024/02/18 02:51:09;;;;;;;43.40;40.83;;;;;;;;;;4181652;28;20539;-69
2024/02/18 02:53:12;;;;;;;40.30;37.42;;;;;;;;;;4180322;28;20051;-69
2024/02/18 02:55:13;;;;;;;;;;;;;;;;;;4182104;28;20045;-69
2024/02/18 02:57:15;;;;;;;39.47;37.33;;;;;;;;;;4181423;28;19924;-69
2024/02/18 02:59:17;;;;;;;38.78;36.47;;;;;;;;;;4181221;28;20595;-69
2024/02/18 03:01:18;;;;;;;38.42;36.17;;;;;;;;;;4181427;28;20052;-69
2024/02/18 03:03:20;;;;;;;40.67;38.40;;;;;;;;;;4181242;28;20047;-68
2024/02/18 03:05:22;;;;;;;41.67;39.43;;;;;;;;;;4181356;28;20033;-70
2024/02/18 03:07:23;;;;;;;39.67;37.20;;;;;;;;;;4181505;28;20075;-68
2024/02/18 03:09:25;;;;;;;40.92;38.55;;;;;;;;;;4181465;28;20538;-69
2024/02/18 03:11:27;;;;;;;39.17;37.47;;;;;;;;;;4181254;28;20400;-70
2024/02/18 03:13:29;;;;;;;40.67;38.47;;;;;;;;;;4181151;28;20594;-69
2024/02/18 03:15:30;;;;;;;39.47;37.60;;;;;;;;;;4181081;28;20048;-69
2024/02/18 03:17:34;;;;;;;40.10;37.88;;;;;;;;;;4181221;28;20064;-70
2024/02/18 03:19:36;;;;;;;39.17;36.97;;;;;;;;;;4181065;28;20041;-68
2024/02/18 03:21:38;;;;;;;40.15;38.03;;;;;;;;;;4181062;28;20044;-69
2024/02/18 03:23:40;;;;;;;42.40;39.72;;;;;;;;;;4181084;28;20554;-69
2024/02/18 03:25:43;;;;;;;41.83;39.60;;;;;;;;;;4180979;28;20045;-68
2024/02/18 03:27:45;;;;;;;40.10;37.65;;;;;;;;;;4177788;28;20567;-69
2024/02/18 03:29:47;;;;;;;42.00;39.58;;;;;;;;;;4163511;28;20049;-69
2024/02/18 03:31:52;;;;;;;44.10;41.65;;;;;;;;;;4164362;28;20091;-68
2024/02/18 03:33:54;;;;;;;44.63;42.13;;;;;;;;;;4164403;28;20111;-67
2024/02/18 03:35:55;;;;;;;45.47;42.83;;;;;;;;;;4164384;28;20053;-68
2024/02/18 03:37:57;;;;;;;44.17;41.28;;;;;;;;;;4164546;28;20071;-68
2024/02/18 03:39:59;;;;;;;44.30;42.00;;;;;;;;;;4163428;28;20046;-69
2024/02/18 03:42:01;;;;;;;40.28;38.03;;;;;;;;;;4164361;28;20044;-68
2024/02/18 03:44:02;;;;;;;40.50;38.17;;;;;;;;;;4164120;28;20056;-69
2024/02/18 03:46:04;;;;;;;41.73;39.43;;;;;;;;;;4164215;28;20045;-69
2024/02/18 03:48:06;;;;;;;43.35;40.85;;;;;;;;;;4164235;28;20037;-68
2024/02/18 03:50:10;;;;;;;39.50;37.50;;;;;;;;;;4164309;28;20037;-68
2024/02/18 03:52:12;;;;;;;41.17;38.58;;;;;;;;;;4164289;28;20397;-69
2024/02/18 03:54:14;;;;;;;43.83;41.17;;;;;;;;;;4164195;28;20167;-69
2024/02/18 03:56:15;;;;;;;44.58;41.92;;;;;;;;;;4172096;28;20052;-70
2024/02/18 03:58:17;;;;;;;44.17;41.83;;;;;;;;;;4180901;28;20099;-69
2024/02/18 04:00:19;;;;;;;44.10;41.70;;;;;;;;;;4180451;28;20094;-69
2024/02/18 04:02:20;;;;;;;44.60;41.70;;;;;;;;;;4180582;28;20037;-69
2024/02/18 04:04:22;;;;;;;42.45;40.10;;;;;;;;;;4180563;28;20124;-69
2024/02/18 04:06:24;;;;;;;41.53;39.15;;;;;;;;;;4180781;28;20045;-69
2024/02/18 04:08:26;;;;;;;41.00;38.97;;;;;;;;;;4180645;28;20036;-69
2024/02/18 04:10:27;;;;;;;41.58;39.35;;;;;;;;;;4180440;28;20063;-69
2024/02/18 04:12:30;;;;;;;41.67;39.28;;;;;;;;;;4179275;28;20069;-69
2024/02/18 04:14:31;;;;;;;;;;;;;;;;;;4181116;28;20037;-69
2024/02/18 04:16:33;;;;;;;34.88;33.45;;;;;;;;;;4179324;28;19975;-69
2024/02/18 04:18:34;;;;;;;36.88;34.83;;;;;;;;;;4180502;28;20124;-69
2024/02/18 04:20:36;;;;;;;41.07;38.77;;;;;;;;;;4180560;28;20037;-69
2024/02/18 04:22:38;;;;;;;39.45;37.28;;;;;;;;;;4180512;28;20045;-69
2024/02/18 04:24:40;;;;;;;41.17;38.67;;;;;;;;;;4172308;28;20044;-68
2024/02/18 04:26:42;;;;;;;;;;;;;;;;;;4164348;28;20509;-69
2024/02/18 04:28:44;;;;;;;40.25;38.45;;;;;;;;;;4163841;28;20384;-68
2024/02/18 04:30:46;;;;;;;36.45;35.05;;;;;;;;;;4163522;28;20408;-69
2024/02/18 04:32:48;;;;;;;38.17;36.30;;;;;;;;;;4162459;28;20471;-68
2024/02/18 04:34:49;;;;;;;36.25;34.60;;;;;;;;;;4162399;28;20081;-68
2024/02/18 04:36:51;;;;;;;37.53;35.85;;;;;;;;;;4162894;28;20049;-69
2024/02/18 04:38:53;;;;;;;39.77;37.87;;;;;;;;;;4163119;28;20084;-68
2024/02/18 04:40:54;;;;;;;40.75;38.58;;;;;;;;;;4162732;28;20383;-68
2024/02/18 04:42:56;;;;;;;42.38;40.13;;;;;;;;;;4163003;28;20037;-69
2024/02/18 04:44:58;;;;;;;45.17;42.20;;;;;;;;;;4162991;28;20120;-68
2024/02/18 04:46:59;;;;;;;43.72;40.58;;;;;;;;;;4163654;28;20343;-68
2024/02/18 04:49:02;;;;;;;45.83;43.20;;;;;;;;;;4163864;28;20037;-69
2024/02/18 04:51:04;;;;;;;44.78;42.28;;;;;;;;;;4165617;28;20069;-69
2024/02/18 04:53:06;;;;;;;41.63;39.43;;;;;;;;;;4179587;28;20099;-69
2024/02/18 04:55:07;;;;;;;42.05;39.45;;;;;;;;;;4183266;28;20187;-69
2024/02/18 04:57:09;;;;;;;44.25;41.55;;;;;;;;;;4183359;28;20071;-69
2024/02/18 04:59:11;;;;;;;43.63;41.43;;;;;;;;;;4179927;28;20049;-69
2024/02/18 05:01:12;;;;;;;40.22;38.15;;;;;;;;;;4166681;28;20037;-69
2024/02/18 05:03:14;;;;;;;38.37;36.17;;;;;;;;;;4166909;28;20052;-69
2024/02/18 05:05:16;;;;;;;39.03;36.70;;;;;;;;;;4166689;28;20284;-69
2024/02/18 05:07:17;;;;;;;40.72;37.97;;;;;;;;;;4166858;28;20103;-69
2024/02/18 05:09:19;;;;;;;44.58;42.03;;;;;;;;;;4166683;28;20041;-69
2024/02/18 05:11:22;;;;;;;42.13;39.70;;;;;;;;;;4166668;28;20487;-69
2024/02/18 05:13:24;;;;;;;39.53;37.40;;;;;;;;;;4166496;28;20041;-69
2024/02/18 05:15:25;;;;;;;37.60;35.75;;;;;;;;;;4166557;28;20128;-69
2024/02/18 05:17:27;;;;;;;37.70;35.75;;;;;;;;;;4166803;28;20046;-69
2024/02/18 05:19:29;;;;;;;40.35;37.83;;;;;;;;;;4166599;28;20552;-69
2024/02/18 05:21:30;;;;;;;37.45;35.67;;;;;;;;;;4166484;28;20045;-62
2024/02/18 05:23:35;;;;;;;35.28;34.08;;;;;;;;;;4166384;28;20045;-62
2024/02/18 05:25:38;;;;;;;35.92;34.45;;;;;;;;;;4166163;28;20033;-63
2024/02/18 05:27:40;;;;;;;38.20;36.42;;;;;;;;;;4166358;28;20045;-63
2024/02/18 05:29:41;;;;;;;42.22;39.75;;;;;;;;;;4166350;28;20398;-62
2024/02/18 05:31:43;;;;;;;45.65;42.92;;;;;;;;;;4166281;28;20073;-63
2024/02/18 05:33:44;;;;;;;42.63;40.30;;;;;;;;;;4166322;28;20594;-63
2024/02/18 05:35:47;;;;;;;46.15;43.33;;;;;;;;;;4166221;28;20386;-63
2024/02/18 05:37:49;;;;;;;;;;;;;;;;;;4166585;28;20073;-62
2024/02/18 05:39:50;;;;;;;39.28;37.00;;;;;;;;;;4166306;28;19928;-62
2024/02/18 05:41:52;;;;;;;39.65;37.40;;;;;;;;;;4176766;28;20043;-62
2024/02/18 05:43:54;;;;;;;45.53;42.78;;;;;;;;;;4182665;28;20095;-62
2024/02/18 05:45:56;;;;;;;42.03;39.75;;;;;;;;;;4177645;28;20037;-62
2024/02/18 05:47:58;;;;;;;44.65;41.95;;;;;;;;;;4177075;28;20040;-62
2024/02/18 05:50:00;;;;;;;45.67;42.78;;;;;;;;;;4182554;28;20091;-62
2024/02/18 05:52:02;;;;;;;46.50;43.55;;;;;;;;;;4182480;28;20539;-62
2024/02/18 05:54:03;;;;;;;45.27;42.40;;;;;;;;;;4171463;28;20128;-62
2024/02/18 05:56:06;;;;;;;39.83;38.20;;;;;;;;;;4165917;28;20284;-62
2024/02/18 05:58:08;;;;;;;40.45;38.60;;;;;;;;;;4166120;28;20038;-63
2024/02/18 06:00:10;;;;;;;41.13;39.35;;;;;;;;;;4166816;28;20077;-62
2024/02/18 06:02:12;;;;;;;38.78;36.97;;;;;;;;;;4181433;28;20493;-63
2024/02/18 06:04:13;;;;;;;36.13;34.77;;;;;;;;;;4182331;28;20049;-63
2024/02/18 06:06:15;;;;;;;41.28;39.60;;;;;;;;;;4182256;28;20041;-63
2024/02/18 06:08:17;;;;;;;39.28;37.88;;;;;;;;;;4182245;28;20076;-63
2024/02/18 06:10:19;;;;;;;40.95;38.95;;;;;;;;;;4182007;28;20112;-63
2024/02/18 06:12:21;;;;;;;39.03;37.33;;;;;;;;;;4182235;28;20079;-63
2024/02/18 06:14:23;;;;;;;39.10;37.33;;;;;;;;;;4177305;28;20077;-63
2024/02/18 06:16:24;;;;;;;41.00;39.03;;;;;;;;;;4165413;28;20087;-63
2024/02/18 06:18:26;;;;;;;42.95;40.83;;;;;;;;;;4164238;28;20057;-63
2024/02/18 06:20:27;;;;;;;43.83;41.73;;;;;;;;;;4165334;28;20128;-63
2024/02/18 06:22:29;;;;;;;46.20;43.72;;;;;;;;;;4165050;28;20284;-66
2024/02/18 06:24:31;;;;;;;40.23;38.37;;;;;;;;;;4164398;28;20072;-69
2024/02/18 06:26:32;;;;;;;44.33;42.03;;;;;;;;;;4164865;28;20043;-69
2024/02/18 06:28:34;;;;;;;42.20;40.20;;;;;;;;;;4165384;28;20076;-69
2024/02/18 06:30:36;;;;;;;43.17;40.80;;;;;;;;;;4165519;28;20390;-69
2024/02/18 06:32:38;;;;;;;45.00;42.80;;;;;;;;;;4165523;28;20048;-69
2024/02/18 06:34:39;;;;;;;38.13;36.42;;;;;;;;;;4167401;28;20045;-68
2024/02/18 06:36:42;;;;;;;44.43;41.90;;;;;;;;;;4172552;28;20523;-68
2024/02/18 06:38:43;;;;;;;;;;;;;;;;;;4170939;28;20049;-69
2024/02/18 06:40:45;;;;;;;39.72;37.92;;;;;;;;;;4175217;28;20326;-69
2024/02/18 06:42:46;;;;;;;45.50;43.27;;;;;;;;;;4178124;28;20029;-69
2024/02/18 06:44:48;;;;;;;41.57;39.30;;;;;;;;;;4173150;28;20044;-69
2024/02/18 06:46:51;;;;;;;41.15;39.10;;;;;;;;;;4166288;28;20088;-69
2024/02/18 06:48:53;;;;;;;41.08;39.17;;;;;;;;;;4164963;28;20037;-69
2024/02/18 06:50:55;;;;;;;42.75;40.78;;;;;;;;;;4165136;28;20041;-69
2024/02/18 06:52:57;;;;;;;42.08;39.97;;;;;;;;;;4165043;28;20042;-69
2024/02/18 06:54:59;;;;;;;41.88;39.92;;;;;;;;;;4165030;28;20501;-69
2024/02/18 06:57:00;;;;;;;42.92;40.95;;;;;;;;;;4165043;28;20505;-69
2024/02/18 06:59:02;;;;;;;43.43;41.40;;;;;;;;;;4178671;28;20593;-69
2024/02/18 07:01:04;;;;;;;45.30;43.05;;;;;;;;;;4181213;28;20068;-69
2024/02/18 07:03:06;;;;;;;41.00;38.67;;;;;;;;;;4181247;28;20057;-69
2024/02/18 07:05:08;;;;;;;44.85;42.75;;;;;;;;;;4180638;28;20103;-69
2024/02/18 07:07:10;;;;;;;43.33;41.10;;;;;;;;;;4179062;28;20045;-69
2024/02/18 07:09:12;;;;;;;41.00;38.58;;;;;;;;;;4173517;28;20080;-69
2024/02/18 07:11:14;;;;;;;39.05;37.20;;;;;;;;;;4174063;28;20053;-68
2024/02/18 07:13:15;;;;;;;42.67;40.42;;;;;;;;;;4175233;28;20524;-61
2024/02/18 07:15:17;;;;;;;41.87;39.67;;;;;;;;;;4180641;28;20041;-61
2024/02/18 07:17:21;;;;;;;43.47;41.10;;;;;;;;;;4175146;28;20726;-64
2024/02/18 07:19:25;;;;;;;50.97;47.22;;;;;;;;;;4163673;28;20037;-68
2024/02/18 07:21:27;;;;;;;46.80;43.33;;;;;;;;;;4164064;28;20501;-68
2024/02/18 07:23:29;;;;;;;45.60;42.53;;;;;;;;;;4164216;28;20478;-67
2024/02/18 07:25:30;;;;;;;43.17;40.45;;;;;;;;;;4163474;28;20037;-67
2024/02/18 07:27:32;;;;;;;40.22;37.97;;;;;;;;;;4165895;28;20482;-67
2024/02/18 07:29:34;;;;;;;41.38;39.20;;;;;;;;;;4180733;28;20095;-67
2024/02/18 07:31:36;;;;;;;45.25;42.55;;;;;;;;;;4180755;28;20078;-62
2024/02/18 07:33:39;;;;;;;47.42;43.65;;;;;;;;;;4180625;28;20045;-61
2024/02/18 07:35:41;;;;;;;51.47;47.00;;;;;;;;;;4180760;28;20068;-62
2024/02/18 07:37:43;;;;;;;47.10;43.50;;;;;;;;;;4180745;28;20413;-62
2024/02/18 07:39:44;;;;;;;49.33;45.65;;;;;;;;;;4180670;28;20071;-62
2024/02/18 07:41:47;;;;;;;51.78;47.72;;;;;;;;;;4173127;28;20038;-62
2024/02/18 07:43:50;;;;;;;52.75;49.10;;;;;;;;;;4167984;28;20046;-63
2024/02/18 07:45:52;;;;;;;51.37;47.53;;;;;;;;;;4164093;28;20034;-62
2024/02/18 07:47:55;;;;;;;50.75;46.85;;;;;;;;;;4173924;28;20037;-62
2024/02/18 07:49:57;;;;;;;48.38;45.05;;;;;;;;;;4180507;28;20509;-62
2024/02/18 07:51:59;;;;;;;33.25;31.83;;;;;;;;;;4180689;28;20079;-62
2024/02/18 07:54:01;;;;;;;34.92;33.65;;;;;;;;;;4180589;28;20128;-62
2024/02/18 07:56:03;;;;;;;32.90;31.85;;;;;;;;;;4180465;28;20049;-62
2024/02/18 07:58:05;;;;;;;33.97;32.80;;;;;;;;;;4174442;28;20136;-62
2024/02/18 08:00:07;;;;;;;34.83;33.03;;;;;;;;;;4178109;28;20095;-62
2024/02/18 08:02:09;;;;;;;32.70;31.70;;;;;;;;;;4180427;28;20505;-63
2024/02/18 08:04:11;;;;;;;33.42;32.17;;;;;;;;;;4180349;28;20036;-62
2024/02/18 08:06:12;;;;;;;39.72;37.45;;;;;;;;;;4180390;28;20045;-63
2024/02/18 08:08:14;;;;;;;41.88;39.45;;;;;;;;;;4178797;28;20041;-62
2024/02/18 08:10:16;;;;;;;47.08;43.97;;;;;;;;;;4170555;28;20041;-64
2024/02/18 08:12:18;;;;;;;49.55;46.17;;;;;;;;;;4171024;28;20474;-63
2024/02/18 08:14:20;;;;;;;45.92;43.10;;;;;;;;;;4168442;28;20052;-62
2024/02/18 08:16:21;;;;;;;44.55;41.67;;;;;;;;;;4177028;28;20056;-61
2024/02/18 08:18:24;;;;;;;37.22;35.33;;;;;;;;;;4176169;28;20508;-62
2024/02/18 08:20:26;;;;;;;38.78;36.95;;;;;;;;;;4174411;28;20102;-63
2024/02/18 08:22:27;;;;;;;40.75;38.55;;;;;;;;;;4178399;28;20088;-62
2024/02/18 08:24:31;;;;;;;44.42;41.47;;;;;;;;;;4175811;28;20061;-64
2024/02/18 08:26:33;;;;;;;44.30;41.10;;;;;;;;;;4169839;28;20493;-62
2024/02/18 08:28:35;;;;;;;44.57;41.10;;;;;;;;;;4183600;28;20114;-62
2024/02/18 08:30:36;;;;;;;40.38;38.17;;;;;;;;;;4181884;28;20554;-62
2024/02/18 08:32:38;;;;;;;36.83;34.93;;;;;;;;;;4166733;28;20076;-62
2024/02/18 08:34:41;;;;;;;33.42;31.73;;;;;;;;;;4170517;28;20297;-62
2024/02/18 08:36:43;;;;;;;40.78;38.42;;;;;;;;;;4188619;28;20036;-63
2024/02/18 08:38:45;;;;;;;44.57;41.57;;;;;;;;;;4189998;28;20078;-62
2024/02/18 08:40:46;;;;;;;40.13;37.83;;;;;;;;;;4190253;28;20376;-62
2024/02/18 08:42:48;;;;;;;39.67;37.70;;;;;;;;;;4189575;28;20029;-67
2024/02/18 08:44:50;;;;;;;39.83;37.53;;;;;;;;;;4188772;28;20063;-67
2024/02/18 08:46:51;;;;;;;40.60;38.45;;;;;;;;;;4191341;28;20128;-68
2024/02/18 08:48:54;;;;;;;40.30;37.70;;;;;;;;;;4197612;28;20047;-67
2024/02/18 08:50:57;;;;;;;37.97;35.70;;;;;;;;;;4190561;28;20052;-67
2024/02/18 08:53:00;;;;;;;34.97;33.17;;;;;;;;;;4197813;28;20040;-67
2024/02/18 08:55:04;;;;;;;33.95;32.35;;;;;;;;;;4155394;28;20457;-68
2024/02/18 08:57:06;;;;;;;33.05;31.65;;;;;;;;;;4177171;28;20438;-68
2024/02/18 08:59:08;;;;;;;34.30;32.73;;;;;;;;;;4186178;28;20029;-67
2024/02/18 09:01:11;;;;;;;32.85;31.25;;;;;;;;;;4181797;28;20045;-68
2024/02/18 09:03:13;;;;;;;28.27;27.08;;;;;;;;;;4176761;28;20041;-67
2024/02/18 09:05:14;;;;;;;32.67;30.80;;;;;;;;;;4172157;28;20059;-68
2024/02/18 09:07:16;;;;;;;37.22;34.88;;;;;;;;;;4170840;28;20052;-67
2024/02/18 09:09:18;;;;;;;35.80;33.70;;;;;;;;;;4180685;28;20115;-67
2024/02/18 09:11:20;;;;;;;29.98;28.17;;;;;;;;;;4189594;28;20306;-67
2024/02/18 09:13:22;;;;;;;28.23;26.42;;;;;;;;;;4190136;28;20830;-67
2024/02/18 09:15:23;;;;;;;28.10;26.52;;;;;;;;;;4187538;28;20373;-67
2024/02/18 09:17:25;;;;;;;29.25;27.50;;;;;;;;;;4187606;28;20455;-67
2024/02/18 09:19:27;;;;;;;27.92;26.55;;;;;;;;;;4185233;28;20045;-67
2024/02/18 09:21:29;;;;;;;27.17;25.53;;;;;;;;;;4178762;28;20044;-67
2024/02/18 09:23:30;;;;;;;24.63;23.03;;;;;;;;;;4187948;28;20123;-68
2024/02/18 09:25:32;;;;;;;22.17;20.95;;;;;;;;;;4182710;28;20086;-68
2024/02/18 09:27:33;;;;;;;21.08;19.65;;;;;;;;;;4189327;28;20037;-68
2024/02/18 09:29:36;;;;;;;24.27;22.95;;;;;;;;;;4175061;28;20053;-67
2024/02/18 09:31:37;;;;;;;24.75;23.33;;;;;;;;;;4187775;28;20044;-67
2024/02/18 09:33:42;;;;;;;25.67;24.33;;;;;;;;;;4189548;28;20109;-67
2024/02/18 09:35:44;;;;;;;25.13;23.67;;;;;;;;;;4193785;28;20119;-67
2024/02/18 09:37:46;;;;;;;23.80;22.35;;;;;;;;;;4197876;28;20063;-68
2024/02/18 09:39:48;;;;;;;21.13;19.65;;;;;;;;;;4182912;28;20139;-67
2024/02/18 09:41:50;;;;;;;18.07;17.17;;;;;;;;;;4188170;28;20409;-68
2024/02/18 09:43:51;;;;;;;14.40;13.63;;;;;;;;;;4198857;28;20310;-67
2024/02/18 09:45:54;;;;;;;15.80;14.77;;;;;;;;;;4185988;28;20284;-67
2024/02/18 09:47:56;;;;;;;19.08;18.20;;;;;;;;;;4178470;28;20427;-67
2024/02/18 09:49:58;;;;;;;18.73;18.00;;;;;;;;;;4182970;28;20098;-67
2024/02/18 09:52:01;;;;;;;17.92;17.02;;;;;;;;;;4195615;28;20049;-68
2024/02/18 09:54:07;;;;;;;16.40;15.60;;;;;;;;;;4195800;28;20119;-67
2024/02/18 09:56:08;;;;;;;17.65;16.75;;;;;;;;;;4185326;28;20033;-67
2024/02/18 09:58:10;;;;;;;12.05;11.75;;;;;;;;;;4177818;28;20127;-67
2024/02/18 10:00:12;;;;;;;10.95;10.63;;;;;;;;;;4173269;28;20052;-67
2024/02/18 10:02:16;;;;;;;9.45;9.10;;;;;;;;;;4178113;28;20041;-63
2024/02/18 10:04:18;;;;;;;7.88;7.68;;;;;;;;;;4189475;28;20091;-62
2024/02/18 10:06:20;;;;;;;6.55;6.35;;;;;;;;;;4189907;28;20071;-64
2024/02/18 10:08:22;;;;;;;7.38;7.07;;;;;;;;;;4196780;28;20048;-63
2024/02/18 10:10:24;;;;;;;5.95;5.85;;;;;;;;;;4188799;28;20049;-62
2024/02/18 10:12:28;;;;;;;6.10;5.78;;;;;;;;;;4183949;28;20044;-62
2024/02/18 10:14:31;;;;;;;5.70;5.60;;;;;;;;;;4167961;28;20069;-63
2024/02/18 10:16:34;;;;;;;5.78;5.68;;;;;;;;;;4182141;28;20036;-63
2024/02/18 10:18:35;;;;;;;6.78;6.47;;;;;;;;;;4189549;28;20036;-62
2024/02/18 10:20:37;;;;;;;7.82;7.53;;;;;;;;;;4189422;28;20041;-63
2024/02/18 10:22:39;;;;;;;13.07;12.07;;;;;;;;;;4175975;28;20049;-63
2024/02/18 10:24:40;;;;;;;8.75;8.45;;;;;;;;;;4189289;28;20046;-63
2024/02/18 10:26:42;;;;;;;8.33;7.83;;;;;;;;;;4191801;28;20408;-63
2024/02/18 10:28:44;;;;;;;8.17;7.77;;;;;;;;;;4187011;28;20064;-63
2024/02/18 10:30:45;;;;;;;9.30;8.90;;;;;;;;;;4190988;28;20271;-64
2024/02/18 10:32:47;;;;;;;8.88;8.55;;;;;;;;;;4190085;28;20044;-64
2024/02/18 10:34:49;;;;;;;8.40;8.10;;;;;;;;;;4189324;28;20055;-63
2024/02/18 10:36:55;;;;;;;4.10;4.00;;;;;;;;;;4185116;28;20476;-63
2024/02/18 10:39:00;;;;;;;5.10;4.93;;;;;;;;;;4187328;28;20045;-63
2024/02/18 10:41:03;;;;;;;2.78;2.78;;;;;;;;;;4187649;28;20041;-62
2024/02/18 10:43:05;;;;;;;3.60;3.40;;;;;;;;;;4187785;28;20116;-63
2024/02/18 10:45:07;;;;;;;3.33;3.10;;;;;;;;;;4180478;28;20025;-64
2024/02/18 10:47:09;;;;;;;2.90;2.90;;;;;;;;;;4188962;28;20119;-63
2024/02/18 10:49:17;;;;;;;2.78;2.78;;;;;;;;;;4177589;28;20045;-64
2024/02/18 10:51:28;;;;;;;2.65;2.55;;;;;;;;;;4178351;28;20119;-63
2024/02/18 10:53:35;;;;;;;2.25;2.17;;;;;;;;;;4184327;28;20040;-63
2024/02/18 10:55:42;;;;;;;2.20;2.20;;;;;;;;;;4183922;28;20045;-64
2024/02/18 10:57:52;;;;;;;2.22;2.22;;;;;;;;;;4181422;28;20040;-63
2024/02/18 11:00:00;;;;;;;2.20;2.20;;;;;;;;;;4177804;28;20033;-63
2024/02/18 11:02:09;;;;;;;2.22;2.08;;;;;;;;;;4186688;28;20033;-67
2024/02/18 11:04:12;;;;;;;2.60;2.50;;;;;;;;;;4173605;28;20049;-67
2024/02/18 11:06:15;;;;;;;2.30;2.22;;;;;;;;;;4182642;28;20480;-67
2024/02/18 11:08:17;;;;;;;1.95;1.95;;;;;;;;;;4178845;28;20040;-68
2024/02/18 11:10:20;;;;;;;2.30;2.30;;;;;;;;;;4169878;28;20037;-68
2024/02/18 11:12:23;;;;;;;2.40;2.33;;;;;;;;;;4184808;28;20037;-60
2024/02/18 11:14:24;;;;;;;2.10;2.00;;;;;;;;;;4181950;28;20036;-60
2024/02/18 11:16:26;;;;;;;1.73;1.73;;;;;;;;;;4167499;28;20033;-61
2024/02/18 11:18:30;;;;;;;1.63;1.63;;;;;;;;;;4165563;28;20296;-60
2024/02/18 11:20:32;;;;;;;2.00;2.00;;;;;;;;;;4164004;28;20095;-61
2024/02/18 11:22:33;;;;;;;1.70;1.70;;;;;;;;;;4162000;28;20041;-60
2024/02/18 11:24:35;;;;;;;1.60;1.60;;;;;;;;;;4164396;28;20049;-60
2024/02/18 11:26:37;;;;;;;1.57;1.57;;;;;;;;;;4168187;28;20112;-60
2024/02/18 11:28:38;;;;;;;2.08;1.88;;;;;;;;;;4164179;28;20743;-60
2024/02/18 11:30:40;;;;;;;1.40;1.40;;;;;;;;;;4164947;28;20045;-60
2024/02/18 11:32:42;;;;;;;1.73;1.73;;;;;;;;;;4163193;28;20288;-60
2024/02/18 11:34:44;;;;;;;1.80;1.80;;;;;;;;;;4163034;28;20079;-60
2024/02/18 11:36:50;;;;;;;1.67;1.67;;;;;;;;;;4162519;28;20045;-61
2024/02/18 11:38:53;;;;;;;1.48;1.48;;;;;;;;;;4161732;28;20585;-61
2024/02/18 11:40:55;;;;;;;1.33;1.30;;;;;;;;;;4162263;28;20125;-62
2024/02/18 11:42:57;;;;;;;1.95;1.48;;;;;;;;;;4164145;28;20116;-60
2024/02/18 11:45:05;;;;;;;1.75;1.73;;;;;;;;;;4163319;28;20136;-61
2024/02/18 11:47:09;;;;;;;1.90;1.90;;;;;;;;;;4164077;28;20497;-60
2024/02/18 11:49:11;;;;;;;1.80;1.80;;;;;;;;;;4163215;28;20088;-60
2024/02/18 11:51:13;;;;;;;2.60;2.50;;;;;;;;;;4163467;28;20041;-61
2024/02/18 11:53:16;;;;;;;1.73;1.73;;;;;;;;;;4163293;28;20041;-62
2024/02/18 11:55:18;;;;;;;2.28;2.17;;;;;;;;;;4163051;28;20571;-61
2024/02/18 11:57:20;;;;;;;;;;;;;;;;;;4165697;28;20037;-61